createdAt,value
2023-03-31T00:01:44.150Z,9.50
2023-03-31T00:04:44.418Z,9.93
2023-03-31T00:07:21.317Z,10.10
2023-03-31T00:10:16.467Z,11.27
2023-03-31T00:14:04.509Z,9.02
2023-03-31T00:17:08.624Z,9.65
2023-03-31T00:20:04.241Z,9.52
2023-03-31T00:22:31.561Z,10.15
2023-03-31T00:26:32.459Z,9.85
2023-03-31T00:27:57.266Z,8.93
2023-03-31T00:30:33.024Z,7.82
2023-03-31T00:33:07.202Z,9.75
2023-03-31T00:35:51.468Z,9.88
2023-03-31T00:38:30.763Z,11.02
2023-03-31T00:44:20.753Z,9.88
2023-03-31T00:47:03.605Z,9.90
2023-03-31T00:49:58.406Z,9.90
2023-03-31T00:52:31.859Z,8.80
2023-03-31T00:55:17.323Z,7.97
2023-03-31T00:58:11.260Z,8.77
2023-03-31T01:00:50.529Z,9.85
2023-03-31T01:03:26.647Z,8.60
2023-03-31T01:06:07.807Z,8.82
2023-03-31T01:08:44.290Z,9.43
2023-03-31T01:11:19.770Z,8.98
2023-03-31T01:13:59.286Z,7.85
2023-03-31T01:17:25.696Z,8.38
2023-03-31T01:20:06.336Z,6.55
2023-03-31T01:23:08.168Z,7.45
2023-03-31T01:25:58.881Z,6.57
2023-03-31T01:28:38.482Z,8.07
2023-03-31T01:31:36.878Z,7.47
2023-03-31T01:34:10.224Z,7.35
2023-03-31T01:37:28.802Z,7.45
2023-03-31T01:40:28.112Z,7.35
2023-03-31T01:43:20.861Z,7.30
2023-03-31T01:46:07.244Z,7.97
2023-03-31T01:48:48.161Z,6.55
2023-03-31T01:51:52.983Z,6.82
2023-03-31T01:54:50.911Z,6.82
2023-03-31T01:57:51.830Z,6.80
2023-03-31T02:00:33.970Z,7.45
2023-03-31T02:03:29.734Z,6.37
2023-03-31T02:06:32.088Z,7.30
2023-03-31T02:09:38.557Z,8.13
2023-03-31T02:12:20.543Z,6.82
2023-03-31T02:15:01.008Z,7.43
2023-03-31T02:17:44.661Z,7.40
2023-03-31T02:20:32.126Z,6.28
2023-03-31T02:23:17.372Z,8.20
2023-03-31T02:25:53.487Z,8.13
2023-03-31T02:28:32.996Z,5.65
2023-03-31T02:35:11.201Z,6.55
2023-03-31T02:37:53.489Z,7.35
2023-03-31T02:40:24.963Z,7.15
2023-03-31T02:43:28.901Z,8.23
2023-03-31T02:46:32.711Z,5.72
2023-03-31T02:49:14.340Z,6.10
2023-03-31T02:54:43.036Z,4.55
2023-03-31T02:57:25.241Z,6.80
2023-03-31T03:00:12.696Z,6.47
2023-03-31T03:02:52.704Z,7.38
2023-03-31T03:05:39.606Z,5.35
2023-03-31T03:08:34.359Z,5.30
2023-03-31T03:11:28.184Z,7.85
2023-03-31T03:14:30.278Z,5.70
2023-03-31T03:17:24.276Z,6.63
2023-03-31T03:19:56.970Z,5.70
2023-03-31T03:22:35.288Z,6.10
2023-03-31T03:25:13.242Z,6.13
2023-03-31T03:27:53.143Z,5.65
2023-03-31T03:30:30.296Z,5.43
2023-03-31T03:33:06.060Z,5.60
2023-03-31T03:35:54.132Z,7.00
2023-03-31T03:38:34.432Z,4.90
2023-03-31T03:41:09.249Z,5.65
2023-03-31T03:43:51.760Z,5.45
2023-03-31T03:49:12.635Z,6.30
2023-03-31T03:51:39.932Z,6.93
2023-03-31T03:54:20.093Z,7.00
2023-03-31T03:57:12.538Z,6.22
2023-03-31T03:59:52.803Z,5.50
2023-03-31T04:05:23.366Z,6.32
2023-03-31T04:08:42.900Z,8.23
2023-03-31T04:11:46.337Z,8.02
2023-03-31T04:14:20.678Z,6.75
2023-03-31T04:18:01.490Z,8.70
2023-03-31T04:19:54.659Z,7.47
2023-03-31T04:22:53.619Z,7.95
2023-03-31T04:25:48.864Z,8.43
2023-03-31T04:28:32.812Z,9.68
2023-03-31T04:31:49.919Z,9.25
2023-03-31T04:34:09.625Z,8.88
2023-03-31T04:36:42.807Z,9.82
2023-03-31T04:39:35.647Z,10.18
2023-03-31T04:42:24.589Z,9.65
2023-03-31T04:44:53.838Z,10.27
2023-03-31T04:47:33.565Z,8.90
2023-03-31T04:50:03.456Z,8.63
2023-03-31T04:52:46.119Z,8.63
2023-03-31T04:55:29.969Z,9.40
2023-03-31T04:57:57.592Z,9.32
2023-03-31T05:00:37.153Z,10.60
2023-03-31T05:03:17.414Z,9.10
2023-03-31T05:05:45.082Z,9.95
2023-03-31T05:08:30.438Z,9.88
2023-03-31T05:11:07.166Z,10.07
2023-03-31T05:13:51.991Z,9.70
2023-03-31T05:16:47.205Z,10.95
2023-03-31T05:19:45.967Z,10.25
2023-03-31T05:22:30.732Z,10.77
2023-03-31T05:25:13.520Z,10.52
2023-03-31T05:27:56.882Z,10.57
2023-03-31T05:31:01.134Z,9.98
2023-03-31T05:33:34.078Z,10.68
2023-03-31T05:36:34.020Z,11.15
2023-03-31T05:39:08.195Z,11.10
2023-03-31T05:41:38.923Z,10.07
2023-03-31T05:44:36.007Z,10.00
2023-03-31T05:47:48.050Z,10.02
2023-03-31T05:50:38.894Z,9.73
2023-03-31T05:53:27.806Z,10.13
2023-03-31T05:56:34.877Z,9.63
2023-03-31T06:02:20.685Z,10.05
2023-03-31T06:04:51.585Z,10.27
2023-03-31T06:07:58.015Z,10.20
2023-03-31T06:10:34.265Z,10.07
2023-03-31T06:13:14.635Z,9.68
2023-03-31T06:16:56.021Z,10.30
2023-03-31T06:19:52.731Z,9.40
2023-03-31T06:22:45.571Z,10.40
2023-03-31T06:25:19.452Z,9.48
2023-03-31T06:27:59.500Z,10.20
2023-03-31T06:31:10.097Z,10.27
2023-03-31T06:40:18.511Z,10.68
2023-03-31T06:43:06.001Z,10.93
2023-03-31T06:45:44.420Z,10.23
2023-03-31T06:48:28.508Z,11.35
2023-03-31T06:54:00.989Z,10.77
2023-03-31T06:56:35.656Z,9.57
2023-03-31T06:59:08.888Z,10.20
2023-03-31T07:02:11.024Z,9.60
2023-03-31T07:04:51.787Z,9.20
2023-03-31T07:10:22.897Z,8.43
2023-03-31T07:13:12.969Z,6.55
2023-03-31T07:15:51.021Z,6.75
2023-03-31T07:18:47.583Z,7.15
2023-03-31T07:22:14.291Z,6.65
2023-03-31T07:28:18.337Z,5.55
2023-03-31T07:31:03.468Z,4.63
2023-03-31T07:36:39.824Z,4.88
2023-03-31T07:40:09.101Z,4.75
2023-03-31T07:45:44.519Z,3.90
2023-03-31T07:49:29.197Z,4.43
2023-03-31T07:55:17.515Z,4.07
2023-03-31T08:05:35.246Z,3.13
2023-03-31T08:25:25.987Z,4.05
2023-03-31T08:27:53.392Z,4.30
2023-03-31T08:30:56.904Z,4.80
2023-03-31T08:33:54.348Z,4.90
2023-03-31T08:40:50.487Z,5.05
2023-03-31T08:43:13.679Z,5.65
2023-03-31T08:45:59.290Z,5.60
2023-03-31T08:49:19.704Z,5.93
2023-03-31T08:57:23.100Z,5.97
2023-03-31T09:00:50.062Z,6.20
2023-03-31T09:07:17.719Z,6.22
2023-03-31T09:11:04.491Z,5.88
2023-03-31T09:13:55.763Z,5.18
2023-03-31T09:17:44.864Z,5.78
2023-03-31T09:20:43.533Z,5.45
2023-03-31T09:27:06.280Z,5.22
2023-03-31T09:30:15.328Z,6.22
2023-03-31T09:32:53.889Z,5.37
2023-03-31T09:38:27.965Z,4.80
2023-03-31T09:41:33.003Z,3.88
2023-03-31T09:44:38.315Z,4.25
2023-03-31T09:48:36.613Z,3.33
2023-03-31T09:51:40.088Z,3.60
2023-03-31T09:54:50.655Z,3.10
2023-03-31T09:57:56.362Z,3.63
2023-03-31T10:00:45.073Z,3.20
2023-03-31T10:03:38.369Z,3.05
2023-03-31T10:06:18.376Z,2.63
2023-03-31T10:09:20.144Z,3.15
2023-03-31T10:12:25.819Z,2.47
2023-03-31T10:15:20.914Z,2.92
2023-03-31T10:21:47.190Z,3.38
2023-03-31T10:24:48.677Z,3.63
2023-03-31T10:28:02.452Z,4.32
2023-03-31T10:30:45.218Z,4.07
2023-03-31T10:33:41.231Z,4.53
2023-03-31T10:36:55.507Z,4.20
2023-03-31T10:40:20.294Z,4.28
2023-03-31T10:43:40.041Z,4.72
2023-03-31T10:46:16.831Z,5.20
2023-03-31T10:49:04.558Z,5.68
2023-03-31T10:52:23.609Z,4.68
2023-03-31T10:55:03.302Z,4.80
2023-03-31T10:58:24.579Z,5.07
2023-03-31T11:01:37.625Z,4.90
2023-03-31T11:04:35.198Z,4.22
2023-03-31T11:08:08.302Z,4.55
2023-03-31T11:10:37.253Z,4.90
2023-03-31T11:13:43.997Z,4.30
2023-03-31T11:16:30.831Z,4.47
2023-03-31T11:20:06.630Z,4.15
2023-03-31T11:22:38.383Z,4.18
2023-03-31T11:28:45.676Z,3.30
2023-03-31T11:32:02.985Z,3.35
2023-03-31T11:35:05.831Z,4.40
2023-03-31T11:37:45.601Z,4.32
2023-03-31T11:40:54.907Z,3.85
2023-03-31T11:44:05.354Z,4.55
2023-03-31T11:46:55.161Z,3.88
2023-03-31T11:50:03.516Z,4.63
2023-03-31T11:53:18.372Z,3.22
2023-03-31T11:56:01.528Z,3.08
2023-03-31T11:59:08.949Z,3.80
2023-03-31T12:02:55.110Z,2.53
2023-03-31T12:05:34.382Z,2.90
2023-03-31T12:08:38.380Z,2.75
2023-03-31T12:11:29.175Z,2.90
2023-03-31T12:14:21.367Z,3.38
2023-03-31T12:17:04.668Z,3.15
2023-03-31T12:19:46.051Z,2.90
2023-03-31T12:22:24.918Z,3.30
2023-03-31T12:24:52.803Z,2.88
2023-03-31T12:27:32.849Z,3.45
2023-03-31T12:30:14.641Z,3.05
2023-03-31T12:33:15.814Z,3.55
2023-03-31T12:36:22.740Z,2.20
2023-03-31T12:39:09.021Z,2.50
2023-03-31T12:41:36.136Z,2.40
2023-03-31T12:44:15.576Z,2.65
2023-03-31T12:47:04.336Z,3.15
2023-03-31T12:49:58.456Z,2.88
2023-03-31T12:52:38.380Z,3.22
2023-03-31T12:55:24.189Z,3.17
2023-03-31T12:57:51.415Z,2.70
2023-03-31T13:00:19.042Z,2.70
2023-03-31T13:02:48.228Z,2.85
2023-03-31T13:05:37.448Z,2.60
2023-03-31T13:08:08.864Z,2.92
2023-03-31T13:10:59.584Z,2.97
2023-03-31T13:13:27.268Z,2.67
2023-03-31T13:16:02.722Z,2.80
2023-03-31T13:18:34.053Z,2.88
2023-03-31T13:21:08.385Z,2.75
2023-03-31T13:23:46.815Z,2.58
2023-03-31T13:26:32.783Z,3.35
2023-03-31T13:29:37.889Z,3.38
2023-03-31T13:32:11.319Z,3.38
2023-03-31T13:38:49.117Z,2.58
2023-03-31T13:42:07.070Z,2.28
2023-03-31T13:49:03.321Z,1.80
2023-03-31T13:54:57.307Z,1.75
2023-03-31T13:57:50.490Z,2.08
2023-03-31T14:00:28.601Z,2.95
2023-03-31T14:03:18.582Z,2.55
2023-03-31T14:05:50.594Z,1.73
2023-03-31T14:08:34.165Z,2.33
2023-03-31T14:11:35.960Z,1.80
2023-03-31T14:14:35.430Z,2.63
2023-03-31T14:17:03.685Z,1.50
2023-03-31T14:19:48.022Z,1.77
2023-03-31T14:22:39.930Z,1.88
2023-03-31T14:25:36.073Z,1.50
2023-03-31T14:28:24.900Z,2.28
2023-03-31T14:31:20.394Z,1.67
2023-03-31T14:34:25.800Z,2.15
2023-03-31T14:37:15.589Z,2.33
2023-03-31T14:39:44.080Z,1.70
2023-03-31T14:42:17.612Z,4.60
2023-03-31T14:44:50.881Z,2.00
2023-03-31T14:47:50.787Z,1.80
2023-03-31T14:50:53.605Z,2.20
2023-03-31T14:53:49.185Z,2.05
2023-03-31T14:56:40.982Z,1.42
2023-03-31T14:59:38.029Z,2.25
2023-03-31T15:02:26.473Z,1.48
2023-03-31T15:05:32.297Z,1.30
2023-03-31T15:08:22.550Z,2.03
2023-03-31T15:11:02.396Z,1.10
2023-03-31T15:14:05.890Z,1.10
2023-03-31T15:16:58.517Z,1.70
2023-03-31T15:19:45.983Z,2.85
2023-03-31T15:22:30.371Z,2.92
2023-03-31T15:25:03.739Z,3.27
2023-03-31T15:27:43.852Z,2.08
2023-03-31T15:30:35.038Z,2.85
2023-03-31T15:33:23.787Z,2.35
2023-03-31T15:35:53.932Z,1.48
2023-03-31T15:38:37.069Z,1.17
2023-03-31T15:44:42.441Z,1.40
2023-03-31T15:47:29.211Z,1.42
2023-03-31T15:50:34.526Z,1.50
2023-03-31T15:53:49.208Z,1.30
2023-03-31T15:57:06.052Z,1.75
2023-03-31T16:02:53.969Z,1.67
2023-03-31T16:09:06.370Z,1.50
2023-03-31T16:11:50.542Z,1.70
2023-03-31T16:14:29.508Z,2.22
2023-03-31T16:17:18.164Z,1.77
2023-03-31T16:19:55.444Z,1.63
2023-03-31T16:22:28.066Z,2.83
2023-03-31T16:24:55.391Z,2.20
2023-03-31T16:27:23.492Z,2.10
2023-03-31T16:30:12.958Z,1.92
2023-03-31T16:32:59.059Z,2.08
2023-03-31T16:35:57.673Z,1.88
2023-03-31T16:38:29.885Z,2.10
2023-03-31T16:40:58.762Z,1.80
2023-03-31T16:43:33.926Z,2.20
2023-03-31T16:46:04.202Z,3.38
2023-03-31T16:48:35.153Z,2.30
2023-03-31T16:51:02.702Z,2.10
2023-03-31T16:53:31.816Z,2.88
2023-03-31T16:55:58.824Z,2.17
2023-03-31T16:58:28.351Z,2.70
2023-03-31T17:01:01.134Z,2.37
2023-03-31T17:03:32.770Z,2.20
2023-03-31T17:06:06.568Z,2.10
2023-03-31T17:08:33.929Z,1.98
2023-03-31T17:11:04.744Z,2.08
2023-03-31T17:13:35.575Z,2.10
2023-03-31T17:18:50.004Z,3.08
2023-03-31T17:21:19.321Z,2.45
2023-03-31T17:23:47.797Z,2.50
2023-03-31T17:26:15.704Z,1.83
2023-03-31T17:28:43.232Z,1.80
2023-03-31T17:31:19.664Z,2.85
2023-03-31T17:33:47.563Z,1.75
2023-03-31T17:36:17.547Z,2.33
2023-03-31T17:38:45.274Z,2.30
2023-03-31T17:41:14.329Z,2.17
2023-03-31T17:43:45.717Z,1.63
2023-03-31T17:46:13.755Z,3.03
2023-03-31T17:48:42.085Z,2.15
2023-03-31T17:51:34.626Z,2.53
2023-03-31T17:54:09.615Z,2.97
2023-03-31T17:56:53.309Z,2.75
2023-03-31T17:59:57.840Z,2.80
2023-03-31T18:02:32.186Z,3.72
2023-03-31T18:05:45.915Z,2.92
2023-03-31T18:08:13.242Z,2.60
2023-03-31T18:10:50.729Z,1.55
2023-03-31T18:13:55.108Z,2.25
2023-03-31T18:19:44.532Z,1.70
2023-03-31T18:22:14.004Z,2.20
2023-03-31T18:25:34.820Z,1.90
2023-03-31T18:28:24.671Z,2.08
2023-03-31T18:32:00.466Z,3.13
2023-03-31T18:34:00.458Z,2.28
2023-03-31T18:39:28.938Z,2.00
2023-03-31T18:42:15.130Z,1.70
2023-03-31T18:44:42.513Z,1.83
2023-03-31T18:47:47.044Z,1.80
2023-03-31T18:50:59.972Z,2.30
2023-03-31T18:53:31.414Z,1.83
2023-03-31T18:59:05.950Z,2.08
2023-03-31T19:01:57.515Z,2.22
2023-03-31T19:04:45.389Z,2.45
2023-03-31T19:10:33.439Z,2.70
2023-03-31T19:13:00.774Z,2.53
2023-03-31T19:15:41.652Z,3.03
2023-03-31T19:18:36.108Z,3.15
2023-03-31T19:21:11.696Z,3.30
2023-03-31T19:23:53.584Z,2.85
2023-03-31T19:27:07.692Z,2.80
2023-03-31T19:29:19.888Z,3.60
2023-03-31T19:32:00.359Z,3.20
2023-03-31T19:35:00.210Z,3.20
2023-03-31T19:37:34.968Z,3.65
2023-03-31T19:40:28.880Z,2.93
2023-03-31T19:43:03.197Z,3.88
2023-03-31T19:46:06.198Z,3.35
2023-03-31T19:48:48.440Z,4.18
2023-03-31T19:51:26.114Z,4.47
2023-03-31T19:53:53.720Z,4.90
2023-03-31T19:56:34.042Z,5.13
2023-03-31T19:59:14.512Z,4.63
2023-03-31T20:01:42.884Z,5.90
2023-03-31T20:04:12.553Z,5.55
2023-03-31T20:07:13.091Z,6.18
2023-03-31T20:12:58.736Z,5.40
2023-03-31T20:15:30.536Z,5.57
2023-03-31T20:18:08.909Z,6.95
2023-03-31T20:20:44.454Z,6.68
2023-03-31T20:23:31.503Z,7.78
2023-03-31T20:26:20.431Z,7.82
2023-03-31T20:29:02.904Z,7.18
2023-03-31T20:31:46.505Z,8.25
2023-03-31T20:34:32.737Z,8.57
2023-03-31T20:37:20.289Z,8.57
2023-03-31T20:39:54.093Z,8.68
2023-03-31T20:42:37.645Z,8.80
2023-03-31T20:45:39.487Z,9.20
2023-03-31T20:48:45.086Z,9.18
2023-03-31T20:51:37.891Z,9.30
2023-03-31T20:54:32.288Z,8.73
2023-03-31T20:57:43.330Z,9.50
2023-03-31T21:00:25.864Z,9.45
2023-03-31T21:02:53.212Z,9.70
2023-03-31T21:06:11.628Z,9.30
2023-03-31T21:08:21.841Z,9.45
2023-03-31T21:11:02.499Z,8.50
2023-03-31T21:14:08.061Z,8.90
2023-03-31T21:17:11.299Z,8.52
2023-03-31T21:19:57.248Z,9.80
2023-03-31T21:22:31.796Z,9.32
2023-03-31T21:25:11.865Z,8.32
2023-03-31T21:28:00.675Z,7.70
2023-03-31T21:30:54.132Z,8.93
2023-03-31T21:34:16.286Z,8.57
2023-03-31T21:36:46.556Z,8.35
2023-03-31T21:39:31.997Z,9.23
2023-03-31T21:42:20.647Z,8.77
2023-03-31T21:44:59.054Z,8.70
2023-03-31T21:47:41.653Z,9.68
2023-03-31T21:50:39.657Z,9.20
2023-03-31T21:53:32.148Z,8.35
2023-03-31T21:56:15.220Z,7.93
2023-03-31T21:59:12.880Z,8.88
2023-03-31T22:01:44.996Z,8.30
2023-03-31T22:04:41.004Z,7.97
2023-03-31T22:07:23.434Z,8.45
2023-03-31T22:09:50.854Z,8.77
2023-03-31T22:12:29.859Z,7.90
2023-03-31T22:15:05.947Z,8.23
2023-03-31T22:20:58.979Z,8.63
2023-03-31T22:23:28.937Z,8.27
2023-03-31T22:26:12.335Z,8.73
2023-03-31T22:31:35.137Z,8.98
2023-03-31T22:37:09.078Z,8.95
2023-03-31T22:43:02.874Z,8.57
2023-03-31T22:46:04.692Z,8.57
2023-03-31T22:48:39.433Z,9.75
2023-03-31T22:51:27.243Z,9.02
2023-03-31T22:54:07.022Z,8.68
2023-03-31T22:57:26.421Z,9.27
2023-03-31T23:02:56.812Z,9.63
2023-03-31T23:08:58.624Z,9.57
2023-03-31T23:11:13.498Z,8.65
2023-03-31T23:14:09.392Z,8.75
2023-03-31T23:16:43.165Z,9.07
2023-03-31T23:19:20.680Z,9.57
2023-03-31T23:21:51.350Z,9.10
2023-03-31T23:27:57.421Z,9.57
2023-03-31T23:31:03.838Z,9.23
2023-03-31T23:33:46.413Z,9.32
2023-03-31T23:36:27.798Z,8.57
2023-03-31T23:39:23.984Z,9.10
2023-03-31T23:41:59.702Z,8.98
2023-03-31T23:44:41.528Z,8.45
2023-03-31T23:47:24.739Z,9.60
2023-03-31T23:50:02.579Z,9.07
2023-03-31T23:53:05.765Z,8.93
2023-03-31T23:55:53.240Z,10.10
